LTR55S ENZV-ENWY
Flight info
| Callsign | LTR55S |
|---|---|
| Flight time | N/A |
| Altitude | 2000 |
| Route | DCT ENWY |
| Aircraft | H160/L-VGD/C |
Departure
| Time | 2026-04-24 13:50 |
|---|---|
| Airport | Stavanger Airport, Sola (ENZV) |
Arrival
| Time | N/A |
|---|---|
| Airport | Yme Inspirer Heliport Offshore (ENWY) |
| Time | Latitude | Longitude | Altitude | Speed | Heading |
|---|---|---|---|---|---|
| 2026-04-24 13:46 | 58.88095 | 5.62362 | 26 ft | 0 kts | 134° |
| 2026-04-24 13:47 | 58.88090 | 5.62390 | 20 ft | 5 kts | 102° |
| 2026-04-24 13:47 | 58.88076 | 5.62483 | 18 ft | 11 kts | 118° |
| 2026-04-24 13:48 | 58.88005 | 5.62539 | 21 ft | 9 kts | 195° |
| 2026-04-24 13:48 | 58.87964 | 5.62519 | 21 ft | 5 kts | 195° |
| 2026-04-24 13:48 | 58.87927 | 5.62500 | 21 ft | 7 kts | 193° |
| 2026-04-24 13:48 | 58.87886 | 5.62427 | 19 ft | 9 kts | 269° |
| 2026-04-24 13:49 | 58.87889 | 5.62398 | 23 ft | 0 kts | 287° |
| 2026-04-24 13:49 | 58.87887 | 5.62401 | 28 ft | 0 kts | 287° |
| 2026-04-24 13:49 | 58.87916 | 5.62200 | 87 ft | 45 kts | 306° |
| 2026-04-24 13:50 | 58.88055 | 5.61262 | 225 ft | 88 kts | 301° |
| 2026-04-24 13:50 | 58.88262 | 5.60070 | 585 ft | 101 kts | 301° |
| 2026-04-24 13:50 | 58.88514 | 5.58841 | 989 ft | 95 kts | 308° |
| 2026-04-24 13:50 | 58.88456 | 5.57417 | 1397 ft | 125 kts | 263° |
| 2026-04-24 13:51 | 58.87988 | 5.55957 | 1755 ft | 137 kts | 241° |
| 2026-04-24 13:51 | 58.87173 | 5.54937 | 1902 ft | 147 kts | 213° |
| 2026-04-24 13:51 | 58.86190 | 5.54285 | 1968 ft | 149 kts | 208° |
| 2026-04-24 13:51 | 58.85207 | 5.53636 | 1986 ft | 148 kts | 211° |
| 2026-04-24 13:52 | 58.84222 | 5.52898 | 1980 ft | 159 kts | 212° |
| 2026-04-24 13:52 | 58.83218 | 5.52073 | 2002 ft | 156 kts | 214° |
| 2026-04-24 13:52 | 58.82235 | 5.51199 | 2006 ft | 155 kts | 216° |
| 2026-04-24 13:52 | 58.81262 | 5.50289 | 2008 ft | 156 kts | 218° |
| 2026-04-24 13:53 | 58.80286 | 5.49358 | 2009 ft | 157 kts | 218° |
| 2026-04-24 13:53 | 58.79318 | 5.48417 | 2015 ft | 154 kts | 219° |
| 2026-04-24 13:53 | 58.78359 | 5.47464 | 2004 ft | 156 kts | 219° |
| 2026-04-24 13:53 | 58.77401 | 5.46511 | 2008 ft | 155 kts | 219° |
| 2026-04-24 13:54 | 58.76449 | 5.45566 | 2012 ft | 155 kts | 219° |
| 2026-04-24 13:54 | 58.75497 | 5.44619 | 2009 ft | 154 kts | 219° |
| 2026-04-24 13:54 | 58.74536 | 5.43664 | 2009 ft | 155 kts | 220° |
| 2026-04-24 13:54 | 58.73451 | 5.42585 | 2013 ft | 154 kts | 220° |
| 2026-04-24 13:55 | 58.71561 | 5.40698 | 2007 ft | 154 kts | 221° |
| 2026-04-24 13:55 | 58.69652 | 5.38794 | 2006 ft | 156 kts | 220° |
| 2026-04-24 13:55 | 58.67714 | 5.36868 | 2007 ft | 156 kts | 220° |
| 2026-04-24 13:55 | 58.65797 | 5.34967 | 2008 ft | 155 kts | 219° |
| 2026-04-24 13:56 | 58.63901 | 5.33085 | 2005 ft | 154 kts | 220° |
| 2026-04-24 13:56 | 58.61986 | 5.31181 | 2016 ft | 153 kts | 219° |
| 2026-04-24 13:56 | 58.60083 | 5.29293 | 2010 ft | 155 kts | 219° |
| 2026-04-24 13:56 | 58.58204 | 5.27431 | 2009 ft | 153 kts | 220° |
| 2026-04-24 13:57 | 58.56317 | 5.25560 | 2023 ft | 153 kts | 220° |
| 2026-04-24 13:57 | 58.54420 | 5.23683 | 2017 ft | 153 kts | 219° |
| 2026-04-24 13:57 | 58.52499 | 5.21786 | 2023 ft | 156 kts | 219° |
| 2026-04-24 13:57 | 58.50597 | 5.19908 | 2020 ft | 156 kts | 220° |
| 2026-04-24 13:58 | 58.48686 | 5.18022 | 2023 ft | 152 kts | 220° |
| 2026-04-24 13:58 | 58.46788 | 5.16155 | 2012 ft | 154 kts | 220° |
| 2026-04-24 13:58 | 58.44879 | 5.14285 | 2011 ft | 156 kts | 220° |
| 2026-04-24 13:58 | 58.42956 | 5.12403 | 2018 ft | 153 kts | 219° |
| 2026-04-24 13:59 | 58.41065 | 5.10553 | 2014 ft | 154 kts | 220° |
| 2026-04-24 13:59 | 58.39160 | 5.08694 | 2003 ft | 155 kts | 220° |
| 2026-04-24 13:59 | 58.37226 | 5.06805 | 2012 ft | 156 kts | 220° |
| 2026-04-24 13:59 | 58.35283 | 5.04915 | 2010 ft | 155 kts | 221° |
| 2026-04-24 14:00 | 58.33371 | 5.03052 | 2009 ft | 154 kts | 221° |
| 2026-04-24 14:00 | 58.31460 | 5.01198 | 2013 ft | 154 kts | 221° |
| 2026-04-24 14:00 | 58.29571 | 4.99365 | 2012 ft | 155 kts | 220° |
| 2026-04-24 14:00 | 58.27634 | 4.97487 | 2017 ft | 156 kts | 221° |
| 2026-04-24 14:01 | 58.25711 | 4.95624 | 2018 ft | 155 kts | 220° |
| 2026-04-24 14:01 | 58.23789 | 4.93765 | 2003 ft | 153 kts | 219° |
| 2026-04-24 14:01 | 58.21918 | 4.91959 | 2014 ft | 153 kts | 218° |
| 2026-04-24 14:01 | 58.20012 | 4.90122 | 2026 ft | 151 kts | 218° |
| 2026-04-24 14:02 | 58.18107 | 4.88285 | 2023 ft | 154 kts | 218° |
| 2026-04-24 14:02 | 58.16209 | 4.86460 | 2013 ft | 154 kts | 218° |
| 2026-04-24 14:02 | 58.14322 | 4.84645 | 2017 ft | 152 kts | 218° |
| 2026-04-24 14:02 | 58.12430 | 4.82829 | 2014 ft | 153 kts | 217° |
| 2026-04-24 14:03 | 58.10548 | 4.81025 | 2010 ft | 149 kts | 218° |
| 2026-04-24 14:03 | 58.08701 | 4.79256 | 2013 ft | 148 kts | 218° |
| 2026-04-24 14:03 | 58.05150 | 4.75859 | 2013 ft | 150 kts | 219° |
| 2026-04-24 14:03 | 58.01443 | 4.72323 | 2008 ft | 150 kts | 218° |
| 2026-04-24 14:04 | 57.99410 | 4.70389 | 2014 ft | 150 kts | 218° |
| 2026-04-24 14:04 | 57.97545 | 4.68614 | 2019 ft | 149 kts | 218° |
| 2026-04-24 14:04 | 57.95698 | 4.66860 | 2014 ft | 149 kts | 218° |
| 2026-04-24 14:04 | 57.92097 | 4.64338 | 438 ft | 15 kts | 115° |
| 2026-04-24 14:05 | 57.92302 | 4.63805 | 13 ft | 0 kts | 3° |
| 2026-04-24 14:05 | 57.92054 | 4.63667 | 7068 ft | 0 kts | 15° |
| 2026-04-24 14:05 | 57.91641 | 4.63772 | 1219 ft | 9 kts | 271° |
| 2026-04-24 14:05 | 57.91362 | 4.63173 | 1442 ft | 102 kts | 240° |
| 2026-04-24 14:06 | 57.90607 | 4.62246 | 1592 ft | 151 kts | 223° |
| 2026-04-24 14:06 | 57.89634 | 4.61228 | 1575 ft | 160 kts | 221° |
| 2026-04-24 14:06 | 57.88757 | 4.60370 | 1558 ft | 140 kts | 220° |
| 2026-04-24 14:06 | 57.87873 | 4.59514 | 1525 ft | 146 kts | 219° |
| 2026-04-24 14:07 | 57.86984 | 4.58649 | 1273 ft | 142 kts | 220° |
| 2026-04-24 14:07 | 57.86022 | 4.58070 | 877 ft | 151 kts | 192° |
| 2026-04-24 14:07 | 57.84974 | 4.58347 | 680 ft | 147 kts | 173° |
| 2026-04-24 14:07 | 57.84063 | 4.58740 | 599 ft | 123 kts | 172° |
| 2026-04-24 14:08 | 57.83233 | 4.59135 | 547 ft | 125 kts | 171° |
| 2026-04-24 14:08 | 57.82408 | 4.59502 | 532 ft | 110 kts | 195° |
| 2026-04-24 14:08 | 57.81916 | 4.58847 | 522 ft | 78 kts | 256° |
| 2026-04-24 14:08 | 57.81623 | 4.57997 | 516 ft | 77 kts | 262° |
| 2026-04-24 14:09 | 57.81421 | 4.57105 | 507 ft | 73 kts | 273° |
| 2026-04-24 14:09 | 57.81278 | 4.56205 | 507 ft | 71 kts | 277° |
| 2026-04-24 14:09 | 57.81191 | 4.55320 | 547 ft | 68 kts | 280° |
| 2026-04-24 14:09 | 57.81155 | 4.54555 | 508 ft | 42 kts | 289° |
| 2026-04-24 14:10 | 57.81159 | 4.54263 | 454 ft | 26 kts | 297° |
| 2026-04-24 14:10 | 57.81258 | 4.53935 | 333 ft | 24 kts | 312° |
| 2026-04-24 14:10 | 57.81370 | 4.53734 | 294 ft | 20 kts | 322° |
| 2026-04-24 14:10 | 57.81448 | 4.53622 | 243 ft | 4 kts | 322° |
| 2026-04-24 14:11 | 57.81457 | 4.53570 | 214 ft | 3 kts | 319° |
| 2026-04-24 14:11 | 57.81462 | 4.53550 | 178 ft | 2 kts | 319° |
| 2026-04-24 14:11 | 57.81465 | 4.53547 | 166 ft | 0 kts | 318° |
| 2026-04-24 14:12 | 57.81465 | 4.53551 | 168 ft | 1 kts | 317° |
| 2026-04-24 14:12 | 57.81471 | 4.53553 | 182 ft | 6 kts | 318° |
| 2026-04-24 14:12 | 57.81558 | 4.53729 | 344 ft | 27 kts | 321° |
| 2026-04-24 14:13 | 57.81616 | 4.53774 | 242 ft | 10 kts | 317° |
| 2026-04-24 14:13 | 57.81613 | 4.53715 | 153 ft | 4 kts | 318° |
| 2026-04-24 14:13 | 57.81604 | 4.53670 | 107 ft | 5 kts | 317° |
| 2026-04-24 14:13 | 57.81609 | 4.53656 | 80 ft | 2 kts | 315° |
| 2026-04-24 14:14 | 57.81611 | 4.53658 | 79 ft | 0 kts | 316° |
| 2026-04-24 14:14 | 57.81615 | 4.53655 | 93 ft | 1 kts | 317° |
| 2026-04-24 14:15 | 57.81843 | 4.53621 | 391 ft | 79 kts | 354° |
| 2026-04-24 14:15 | 57.82254 | 4.54575 | 697 ft | 116 kts | 70° |
| 2026-04-24 14:15 | 57.81660 | 4.55779 | 812 ft | 145 kts | 175° |
| 2026-04-24 14:15 | 57.80857 | 4.55241 | 897 ft | 97 kts | 250° |
| 2026-04-24 14:16 | 57.80769 | 4.54498 | 993 ft | 27 kts | 303° |
| 2026-04-24 14:16 | 57.80873 | 4.54291 | 761 ft | 37 kts | 325° |
| 2026-04-24 14:16 | 57.81168 | 4.53864 | 582 ft | 55 kts | 327° |
| 2026-04-24 14:17 | 57.81434 | 4.53640 | 262 ft | 7 kts | 329° |
| 2026-04-24 14:17 | 57.81453 | 4.53586 | 239 ft | 3 kts | 327° |
| 2026-04-24 14:17 | 57.81459 | 4.53552 | 181 ft | 2 kts | 327° |
| 2026-04-24 14:18 | 57.81464 | 4.53548 | 166 ft | 0 kts | 326° |
| 2026-04-24 14:18 | 57.81464 | 4.53547 | 166 ft | 0 kts | 326° |
| 2026-04-24 14:18 | 57.81464 | 4.53548 | 166 ft | 0 kts | 326° |
| 2026-04-24 14:18 | 57.81464 | 4.53547 | 166 ft | 0 kts | 326° |
| 2026-04-24 14:19 | 57.81464 | 4.53548 | 166 ft | 0 kts | 326° |
| 2026-04-24 14:20 | 57.81464 | 4.53547 | 166 ft | 0 kts | 326° |
| 2026-04-24 14:20 | 57.81464 | 4.53548 | 166 ft | 0 kts | 326° |